Time;durP1;ratioP1;P1;durP2;ratioP2;P2;SDS_P1;SDS_P2;PMS_P1;PMS_P2;Temp;Humidity;BMP_temperature;BMP_pressure;BME280_temperature;BME280_humidity;BME280_pressure;Samples;Min_cycle;Max_cycle;Signal;HPM_P1;HPM_P2
2023/09/24 00:01:45;;;;;;;2.13;0.93;;;15.10;93.20;;;;;;5109350;28;20028;-70
2023/09/24 00:04:11;;;;;;;0.85;0.75;;;15.10;93.40;;;;;;5108981;28;20027;-71
2023/09/24 00:06:37;;;;;;;2.63;1.23;;;15.10;93.40;;;;;;5109334;28;20126;-70
2023/09/24 00:09:03;;;;;;;1.30;0.85;;;15.00;93.30;;;;;;5095545;28;20512;-70
2023/09/24 00:11:29;;;;;;;3.63;1.08;;;15.00;93.10;;;;;;5095670;28;20500;-70
2023/09/24 00:13:54;;;;;;;2.03;1.20;;;15.10;93.10;;;;;;5095233;28;20028;-69
2023/09/24 00:16:20;;;;;;;2.95;1.00;;;15.10;93.00;;;;;;5095536;28;20035;-69
2023/09/24 00:18:46;;;;;;;2.90;1.00;;;15.10;92.90;;;;;;5095609;28;20480;-69
2023/09/24 00:21:12;;;;;;;1.10;0.80;;;15.10;92.80;;;;;;5094770;28;20135;-71
2023/09/24 00:23:39;;;;;;;1.35;0.90;;;15.10;92.80;;;;;;5086930;28;20389;-69
2023/09/24 00:26:05;;;;;;;2.30;0.95;;;15.00;92.70;;;;;;5074626;28;20028;-71
2023/09/24 00:28:31;;;;;;;3.13;1.00;;;15.10;92.70;;;;;;5075073;28;20021;-70
2023/09/24 00:30:58;;;;;;;1.40;1.10;;;15.00;92.50;;;;;;5074609;28;20027;-71
2023/09/24 00:33:24;;;;;;;1.25;0.95;;;15.10;92.10;;;;;;5074915;28;20111;-71
2023/09/24 00:35:51;;;;;;;2.17;1.20;;;15.10;91.60;;;;;;5074898;28;20393;-69
2023/09/24 00:38:18;;;;;;;1.20;0.85;;;15.10;91.20;;;;;;5074424;28;20056;-70
2023/09/24 00:40:44;;;;;;;2.03;1.45;;;15.10;91.20;;;;;;5074821;28;20039;-70
2023/09/24 00:43:32;;;;;;;2.40;1.00;;;15.10;90.80;;;;;;5074132;28;20107;-69
2023/09/24 00:46:00;;;;;;;3.00;1.23;;;15.10;90.60;;;;;;5074325;28;20479;-70
2023/09/24 00:48:27;;;;;;;1.73;0.77;;;15.10;90.40;;;;;;5074957;28;20039;-70
2023/09/24 00:50:57;;;;;;;1.52;0.90;;;15.10;90.30;;;;;;5074620;28;20091;-70
2023/09/24 00:53:28;;;;;;;1.83;1.00;;;15.10;90.10;;;;;;5074612;28;20032;-70
2023/09/24 00:55:57;;;;;;;1.80;0.90;;;15.10;90.20;;;;;;5074395;28;20052;-69
2023/09/24 00:58:24;;;;;;;1.98;1.00;;;15.10;89.30;;;;;;5074589;28;20029;-69
2023/09/24 01:00:54;;;;;;;4.22;1.05;;;15.10;89.40;;;;;;5074599;28;20016;-69
2023/09/24 01:03:24;;;;;;;1.52;1.05;;;15.10;89.10;;;;;;5074294;28;20354;-69
2023/09/24 01:05:50;;;;;;;1.15;0.73;;;15.20;89.10;;;;;;5074360;28;20033;-69
2023/09/24 01:08:20;;;;;;;2.45;0.95;;;15.10;89.20;;;;;;5073920;28;20060;-70
2023/09/24 01:10:49;;;;;;;4.07;1.13;;;15.10;89.10;;;;;;5074362;28;20028;-69
2023/09/24 01:13:20;;;;;;;2.20;0.90;;;15.10;88.90;;;;;;5073782;28;20056;-69
2023/09/24 01:15:52;;;;;;;1.55;1.10;;;15.10;89.00;;;;;;5074899;28;20040;-69
2023/09/24 01:18:21;;;;;;;0.88;0.80;;;15.10;89.40;;;;;;5094052;28;20032;-70
2023/09/24 01:20:47;;;;;;;1.00;0.73;;;15.10;89.20;;;;;;5093266;28;20026;-69
2023/09/24 01:23:14;;;;;;;1.63;1.08;;;15.10;89.40;;;;;;5093896;28;20027;-71
2023/09/24 01:25:43;;;;;;;1.30;0.90;;;15.10;88.90;;;;;;5094342;28;20032;-69
2023/09/24 01:28:10;;;;;;;2.60;1.20;;;15.10;89.20;;;;;;5076828;28;20136;-69
2023/09/24 01:30:36;;;;;;;6.95;1.23;;;15.00;89.30;;;;;;5073952;28;20170;-70
2023/09/24 01:33:01;;;;;;;2.30;0.95;;;15.00;89.30;;;;;;5073438;28;20472;-70
2023/09/24 01:35:29;;;;;;;2.47;1.10;;;15.00;89.40;;;;;;5073661;28;20107;-69
2023/09/24 01:38:00;;;;;;;2.50;1.17;;;15.00;89.60;;;;;;5073961;28;20043;-70
2023/09/24 01:40:27;;;;;;;1.73;1.20;;;15.00;89.40;;;;;;5073442;28;20362;-71
2023/09/24 01:42:57;;;;;;;5.25;1.10;;;15.00;89.50;;;;;;5073635;28;20036;-70
2023/09/24 01:45:24;;;;;;;2.10;1.00;;;14.90;89.20;;;;;;5073865;28;20024;-69
2023/09/24 01:47:49;;;;;;;1.40;1.00;;;14.90;89.00;;;;;;5073361;28;20033;-70
2023/09/24 01:50:16;;;;;;;2.08;1.13;;;14.90;89.00;;;;;;5073013;28;20075;-70
2023/09/24 01:52:45;;;;;;;2.10;0.95;;;14.90;89.10;;;;;;5073498;28;20017;-70
2023/09/24 01:55:15;;;;;;;5.57;0.88;;;14.90;88.90;;;;;;5072977;28;20024;-71
2023/09/24 01:57:44;;;;;;;1.40;1.08;;;14.90;88.50;;;;;;5073252;28;20045;-70
2023/09/24 02:00:26;;;;;;;2.67;1.30;;;14.80;88.30;;;;;;5072825;28;20457;-70
2023/09/24 02:03:00;;;;;;;2.40;1.02;;;14.90;88.20;;;;;;5073368;28;20322;-70
2023/09/24 02:05:34;;;;;;;1.63;1.00;;;14.80;88.80;;;;;;5073771;28;20510;-69
2023/09/24 02:08:00;;;;;;;1.35;1.13;;;14.80;88.50;;;;;;5073153;28;20473;-70
2023/09/24 02:10:27;;;;;;;1.48;1.15;;;14.80;88.90;;;;;;5072863;28;20031;-70
2023/09/24 02:12:52;;;;;;;2.65;0.95;;;14.80;88.10;;;;;;5073086;28;20095;-70
2023/09/24 02:15:19;;;;;;;1.95;1.05;;;14.80;88.10;;;;;;5072656;28;20115;-70
2023/09/24 02:17:48;;;;;;;2.00;1.05;;;14.80;88.50;;;;;;5072491;28;20515;-70
2023/09/24 02:20:18;;;;;;;2.08;1.00;;;14.80;88.70;;;;;;5071537;28;20079;-70
2023/09/24 02:22:48;;;;;;;1.77;1.23;;;14.80;88.70;;;;;;5073093;28;20025;-70
2023/09/24 02:25:14;;;;;;;2.20;1.00;;;14.70;88.70;;;;;;5075484;28;20396;-70
2023/09/24 02:27:41;;;;;;;2.47;1.13;;;14.70;89.00;;;;;;5072869;28;20052;-70
2023/09/24 02:30:08;;;;;;;1.48;1.08;;;14.70;89.50;;;;;;5072204;28;20025;-70
2023/09/24 02:32:34;;;;;;;2.22;1.10;;;14.70;89.70;;;;;;5072785;28;20036;-70
2023/09/24 02:34:59;;;;;;;3.70;1.10;;;14.70;89.70;;;;;;5072774;28;20028;-70
2023/09/24 02:37:28;;;;;;;1.83;1.20;;;14.60;89.70;;;;;;5072288;28;20040;-70
2023/09/24 02:39:54;;;;;;;1.45;0.90;;;14.60;90.00;;;;;;5072646;28;20024;-70
2023/09/24 02:42:20;;;;;;;5.47;1.30;;;14.60;89.70;;;;;;5072394;28;20047;-70
2023/09/24 02:44:47;;;;;;;1.52;1.05;;;14.60;90.00;;;;;;5072700;28;20116;-70
2023/09/24 02:47:14;;;;;;;3.88;1.23;;;14.60;89.90;;;;;;5072215;28;20043;-70
2023/09/24 02:49:40;;;;;;;1.38;1.02;;;14.50;90.20;;;;;;5072797;28;20111;-70
2023/09/24 02:52:06;;;;;;;3.03;1.58;;;14.50;90.00;;;;;;5071944;28;20536;-70
2023/09/24 02:54:32;;;;;;;1.45;1.00;;;14.50;90.00;;;;;;5072635;28;20376;-70
2023/09/24 02:56:58;;;;;;;2.40;1.30;;;14.50;89.80;;;;;;5072525;28;20094;-70
2023/09/24 02:59:23;;;;;;;4.00;1.38;;;14.50;89.70;;;;;;5072215;28;20273;-70
2023/09/24 03:01:49;;;;;;;3.75;1.10;;;14.50;89.50;;;;;;5072771;28;20035;-70
2023/09/24 03:04:15;;;;;;;1.65;1.00;;;14.50;89.40;;;;;;5072169;28;20028;-70
2023/09/24 03:06:41;;;;;;;2.05;1.10;;;14.50;89.10;;;;;;5072603;28;20107;-69
2023/09/24 03:09:10;;;;;;;2.20;1.20;;;14.50;89.00;;;;;;5072064;28;20128;-70
2023/09/24 03:11:37;;;;;;;2.97;1.25;;;14.50;89.10;;;;;;5072093;28;20473;-69
2023/09/24 03:14:03;;;;;;;1.77;1.20;;;14.50;89.30;;;;;;5072399;28;20096;-69
2023/09/24 03:16:29;;;;;;;2.05;1.00;;;14.50;88.90;;;;;;5071883;28;20040;-69
2023/09/24 03:18:55;;;;;;;2.88;1.23;;;14.50;89.30;;;;;;5074848;28;20021;-69
2023/09/24 03:21:21;;;;;;;1.52;1.17;;;14.50;89.50;;;;;;5070883;28;20032;-70
2023/09/24 03:23:46;;;;;;;1.23;1.10;;;14.50;89.60;;;;;;5072599;28;20372;-70
2023/09/24 03:26:15;;;;;;;2.63;1.20;;;14.40;89.70;;;;;;5072037;28;20032;-71
2023/09/24 03:28:41;;;;;;;1.70;1.20;;;14.40;90.00;;;;;;5072123;28;20528;-70
2023/09/24 03:31:16;;;;;;;2.08;1.10;;;14.40;89.60;;;;;;5071835;28;20032;-71
2023/09/24 03:33:42;;;;;;;1.63;1.05;;;14.40;90.00;;;;;;5089926;28;20024;-69
2023/09/24 03:36:08;;;;;;;2.63;1.10;;;14.40;90.10;;;;;;5091876;28;20042;-69
2023/09/24 03:38:37;;;;;;;1.92;1.10;;;14.40;90.00;;;;;;5092371;28;20453;-69
2023/09/24 03:41:03;;;;;;;3.13;1.10;;;14.40;89.90;;;;;;5092107;28;20404;-69
2023/09/24 03:43:29;;;;;;;1.90;1.27;;;14.40;89.70;;;;;;5093701;28;20020;-69
2023/09/24 03:45:55;;;;;;;1.63;1.00;;;14.40;89.80;;;;;;5095830;28;20067;-70
2023/09/24 03:48:22;;;;;;;2.45;0.90;;;14.30;90.10;;;;;;5095712;28;20025;-70
2023/09/24 03:50:48;;;;;;;2.45;0.93;;;14.30;90.10;;;;;;5096119;28;20051;-69
2023/09/24 03:53:18;;;;;;;2.25;1.23;;;14.30;90.10;;;;;;5095592;28;20025;-71
2023/09/24 03:55:45;;;;;;;2.00;1.13;;;14.30;90.10;;;;;;5095816;28;20072;-71
2023/09/24 03:58:11;;;;;;;4.15;1.30;;;14.30;90.20;;;;;;5094356;28;20114;-71
2023/09/24 04:00:37;;;;;;;3.28;1.08;;;14.30;90.10;;;;;;5095915;28;20063;-70
2023/09/24 04:03:03;;;;;;;3.33;1.45;;;14.30;90.10;;;;;;5095892;28;20059;-70
2023/09/24 04:05:30;;;;;;;3.17;1.10;;;14.30;90.20;;;;;;5095403;28;20380;-70
2023/09/24 04:07:56;;;;;;;1.60;1.00;;;14.30;90.40;;;;;;5095856;28;20032;-70
2023/09/24 04:10:25;;;;;;;3.38;1.35;;;14.30;90.30;;;;;;5095224;28;20024;-70
2023/09/24 04:12:51;;;;;;;3.80;1.10;;;14.30;90.20;;;;;;5095604;28;20120;-70
2023/09/24 04:15:19;;;;;;;2.58;1.10;;;14.30;90.10;;;;;;5093956;28;20464;-70
2023/09/24 04:17:46;;;;;;;2.50;1.45;;;14.30;90.10;;;;;;5095465;28;20233;-70
2023/09/24 04:20:15;;;;;;;1.48;1.10;;;14.30;90.20;;;;;;5095117;28;20043;-70
2023/09/24 04:22:44;;;;;;;1.85;1.30;;;14.30;90.10;;;;;;5095453;28;20118;-70
2023/09/24 04:25:14;;;;;;;2.90;1.38;;;14.30;90.10;;;;;;5095003;28;20020;-72
2023/09/24 04:27:40;;;;;;;3.10;1.30;;;14.30;90.10;;;;;;5091923;28;20089;-69
2023/09/24 04:30:15;;;;;;;1.80;1.08;;;14.30;90.00;;;;;;5095010;28;20077;-70
2023/09/24 04:32:44;;;;;;;3.45;1.20;;;14.30;90.00;;;;;;5095503;28;20024;-69
2023/09/24 04:35:10;;;;;;;2.95;1.08;;;14.30;89.80;;;;;;5094876;28;20111;-69
2023/09/24 04:37:37;;;;;;;2.17;1.23;;;14.40;89.90;;;;;;5095137;28;20028;-69
2023/09/24 04:40:05;;;;;;;3.20;1.10;;;14.40;89.40;;;;;;5095188;28;20028;-71
2023/09/24 04:42:31;;;;;;;3.53;1.48;;;14.40;89.50;;;;;;5094694;28;20558;-70
2023/09/24 04:44:57;;;;;;;2.42;1.20;;;14.40;89.50;;;;;;5095238;28;20069;-70
2023/09/24 04:47:22;;;;;;;2.17;1.10;;;14.40;89.20;;;;;;5094622;28;20036;-70
2023/09/24 04:49:48;;;;;;;2.65;1.17;;;14.30;89.60;;;;;;5095038;28;20472;-70
2023/09/24 04:52:14;;;;;;;4.05;1.20;;;14.30;89.40;;;;;;5094588;28;20028;-70
2023/09/24 04:54:39;;;;;;;2.05;1.30;;;14.40;89.40;;;;;;5093464;28;20475;-70
2023/09/24 04:57:07;;;;;;;3.60;1.15;;;14.30;89.20;;;;;;5094313;28;20048;-70
2023/09/24 04:59:33;;;;;;;1.98;1.02;;;14.30;89.40;;;;;;5094348;28;20035;-70
2023/09/24 05:01:59;;;;;;;2.28;1.10;;;14.30;89.40;;;;;;5094427;28;20020;-70
2023/09/24 05:04:25;;;;;;;1.80;1.20;;;14.30;89.30;;;;;;5093935;28;20034;-70
2023/09/24 05:06:51;;;;;;;4.57;1.20;;;14.30;89.30;;;;;;5094527;28;20028;-70
2023/09/24 05:09:17;;;;;;;2.05;1.20;;;14.30;89.00;;;;;;5094176;28;20016;-70
2023/09/24 05:11:42;;;;;;;2.58;1.05;;;14.30;89.40;;;;;;5094831;28;20418;-70
2023/09/24 05:14:08;;;;;;;2.30;1.00;;;14.30;89.60;;;;;;5094478;28;20479;-70
2023/09/24 05:16:33;;;;;;;3.85;1.45;;;14.30;89.80;;;;;;5093703;28;20075;-70
2023/09/24 05:19:02;;;;;;;5.10;1.40;;;14.30;89.50;;;;;;5094183;28;20024;-70
2023/09/24 05:21:28;;;;;;;1.77;1.00;;;14.30;89.60;;;;;;5092891;28;20069;-71
2023/09/24 05:23:54;;;;;;;2.17;1.17;;;14.30;89.90;;;;;;5091872;28;20563;-70
2023/09/24 05:26:20;;;;;;;1.73;1.00;;;14.30;89.40;;;;;;5093825;28;20103;-70
2023/09/24 05:28:46;;;;;;;1.38;1.02;;;14.30;89.90;;;;;;5094218;28;20024;-70
2023/09/24 05:31:12;;;;;;;2.72;1.20;;;14.20;89.70;;;;;;5094422;28;20074;-70
2023/09/24 05:33:38;;;;;;;2.78;1.23;;;14.30;89.60;;;;;;5093575;28;20058;-70
2023/09/24 05:36:04;;;;;;;3.40;1.20;;;14.20;89.70;;;;;;5093587;28;20028;-70
2023/09/24 05:38:30;;;;;;;2.17;1.02;;;14.30;90.20;;;;;;5093226;28;20020;-71
2023/09/24 05:40:56;;;;;;;3.63;1.10;;;14.30;89.80;;;;;;5074585;28;20443;-70
2023/09/24 05:43:22;;;;;;;3.95;1.10;;;14.30;89.90;;;;;;5072963;28;20377;-70
2023/09/24 05:45:49;;;;;;;1.70;1.10;;;14.30;89.80;;;;;;5073532;28;20021;-70
2023/09/24 05:48:15;;;;;;;4.93;1.15;;;14.30;89.90;;;;;;5073495;28;20029;-70
2023/09/24 05:50:41;;;;;;;2.35;1.20;;;14.30;90.00;;;;;;5073349;28;20048;-70
2023/09/24 05:53:08;;;;;;;1.30;0.93;;;14.30;90.00;;;;;;5073500;28;20048;-70
2023/09/24 05:55:34;;;;;;;2.25;1.23;;;14.30;89.80;;;;;;5071523;28;20024;-70
2023/09/24 05:58:00;;;;;;;3.65;1.33;;;14.30;89.80;;;;;;5073193;28;20032;-70
2023/09/24 06:00:28;;;;;;;4.25;1.50;;;14.30;90.00;;;;;;5072867;28;20036;-70
2023/09/24 06:02:54;;;;;;;2.50;1.33;;;14.40;89.80;;;;;;5071928;28;20048;-70
2023/09/24 06:05:20;;;;;;;2.22;1.30;;;14.40;89.80;;;;;;5072254;28;20028;-70
2023/09/24 06:07:45;;;;;;;1.58;1.20;;;14.40;89.80;;;;;;5072978;28;20028;-70
2023/09/24 06:10:11;;;;;;;5.90;1.55;;;14.40;89.80;;;;;;5073087;28;20029;-70
2023/09/24 06:12:37;;;;;;;3.90;1.30;;;14.40;90.10;;;;;;5071363;28;20484;-70
2023/09/24 06:15:03;;;;;;;2.63;1.30;;;14.40;90.20;;;;;;5073047;28;20048;-70
2023/09/24 06:17:29;;;;;;;2.75;1.17;;;14.50;89.90;;;;;;5072539;28;20029;-70
2023/09/24 06:19:57;;;;;;;2.40;1.20;;;14.50;89.80;;;;;;5072901;28;20035;-70
2023/09/24 06:22:23;;;;;;;5.43;1.58;;;14.50;90.00;;;;;;5075112;28;20031;-70
2023/09/24 06:24:50;;;;;;;2.65;1.30;;;14.60;89.70;;;;;;5072869;28;20458;-70
2023/09/24 06:27:16;;;;;;;1.55;1.17;;;14.70;89.60;;;;;;5073021;28;20064;-70
2023/09/24 06:29:43;;;;;;;1.65;1.20;;;14.70;89.10;;;;;;5072481;28;20026;-70
2023/09/24 06:32:08;;;;;;;3.65;1.10;;;14.70;89.00;;;;;;5072611;28;20370;-71
2023/09/24 06:34:36;;;;;;;3.42;1.27;;;14.80;88.90;;;;;;5072399;28;20059;-69
2023/09/24 06:37:02;;;;;;;1.60;1.10;;;14.80;88.90;;;;;;5072771;28;20119;-69
2023/09/24 06:39:29;;;;;;;2.35;1.42;;;14.80;88.90;;;;;;5072594;28;20031;-71
2023/09/24 06:41:55;;;;;;;2.15;1.17;;;14.80;88.70;;;;;;5072713;28;20396;-70
2023/09/24 06:44:23;;;;;;;2.00;1.20;;;14.90;88.50;;;;;;5071940;28;20074;-71
2023/09/24 06:46:52;;;;;;;1.90;0.98;;;14.90;88.50;;;;;;5072836;28;20033;-70
2023/09/24 06:49:17;;;;;;;1.55;1.08;;;15.00;87.60;;;;;;5072757;28;20043;-70
2023/09/24 06:51:43;;;;;;;3.03;1.35;;;15.00;88.00;;;;;;5072190;28;20028;-70
2023/09/24 06:54:09;;;;;;;3.35;1.15;;;15.10;87.30;;;;;;5072431;28;20311;-69
2023/09/24 06:56:34;;;;;;;1.25;0.98;;;15.10;87.30;;;;;;5072355;28;20175;-69
2023/09/24 06:59:00;;;;;;;2.95;1.20;;;15.10;87.30;;;;;;5074378;28;20078;-70
2023/09/24 07:01:25;;;;;;;2.10;1.38;;;15.20;86.20;;;;;;5073704;28;20031;-70
2023/09/24 07:03:51;;;;;;;2.22;1.17;;;15.20;85.90;;;;;;5073853;28;20025;-70
2023/09/24 07:06:17;;;;;;;3.25;1.30;;;15.20;85.30;;;;;;5074153;28;20028;-70
2023/09/24 07:08:43;;;;;;;4.28;1.45;;;15.30;85.50;;;;;;5073034;28;20032;-70
2023/09/24 07:11:25;;;;;;;2.28;1.08;;;15.30;84.90;;;;;;5073737;28;20123;-70
2023/09/24 07:13:51;;;;;;;4.43;1.10;;;15.30;85.30;;;;;;5074061;28;20094;-70
2023/09/24 07:16:22;;;;;;;2.42;1.00;;;15.40;85.40;;;;;;5073190;28;20041;-70
2023/09/24 07:18:50;;;;;;;4.80;1.27;;;15.40;85.50;;;;;;5074912;28;20372;-70
2023/09/24 07:21:16;;;;;;;3.25;1.10;;;15.40;85.00;;;;;;5074859;28;20504;-70
2023/09/24 07:23:42;;;;;;;3.20;1.05;;;15.40;84.90;;;;;;5075804;28;20132;-70
2023/09/24 07:26:08;;;;;;;4.07;1.08;;;15.40;84.30;;;;;;5076245;28;20524;-70
2023/09/24 07:28:34;;;;;;;4.43;1.40;;;15.40;84.10;;;;;;5076645;28;20476;-70
2023/09/24 07:31:00;;;;;;;3.30;1.17;;;15.40;84.40;;;;;;5077313;28;20027;-70
2023/09/24 07:33:26;;;;;;;3.03;1.33;;;15.40;84.20;;;;;;5075398;28;20025;-70
2023/09/24 07:35:52;;;;;;;2.40;1.13;;;15.40;84.00;;;;;;5092574;28;20111;-70
2023/09/24 07:38:18;;;;;;;3.42;1.33;;;15.40;84.00;;;;;;5096100;28;20103;-70
2023/09/24 07:40:44;;;;;;;1.35;1.00;;;15.40;84.60;;;;;;5095820;28;20024;-69
2023/09/24 07:43:10;;;;;;;1.92;1.23;;;15.40;84.60;;;;;;5096148;28;20528;-69
2023/09/24 07:45:36;;;;;;;2.42;1.25;;;15.40;84.60;;;;;;5096095;28;20104;-68
2023/09/24 07:48:03;;;;;;;3.92;1.40;;;15.40;84.10;;;;;;5096020;28;20061;-69
2023/09/24 07:50:29;;;;;;;2.90;1.40;;;15.40;84.30;;;;;;5095639;28;20031;-70
2023/09/24 07:52:56;;;;;;;4.00;1.30;;;15.50;84.30;;;;;;5096146;28;20032;-70
2023/09/24 07:55:22;;;;;;;2.83;1.23;;;15.50;84.30;;;;;;5095523;28;20383;-70
2023/09/24 07:57:47;;;;;;;2.17;1.17;;;15.50;84.60;;;;;;5095419;28;20111;-70
2023/09/24 08:00:13;;;;;;;4.32;1.38;;;15.50;84.50;;;;;;5095598;28;20098;-70
2023/09/24 08:02:39;;;;;;;2.38;1.00;;;15.50;83.90;;;;;;5095530;28;20049;-70
2023/09/24 08:05:05;;;;;;;1.15;0.90;;;15.50;83.90;;;;;;5094425;28;20401;-70
2023/09/24 08:07:32;;;;;;;3.33;1.10;;;15.60;84.10;;;;;;5095338;28;20036;-71
2023/09/24 08:09:59;;;;;;;3.83;1.10;;;15.60;84.10;;;;;;5095651;28;20032;-71
2023/09/24 08:12:24;;;;;;;4.95;1.25;;;15.60;84.00;;;;;;5094356;28;20386;-69
2023/09/24 08:14:50;;;;;;;2.17;0.95;;;15.60;83.70;;;;;;5093845;28;20032;-70
2023/09/24 08:17:16;;;;;;;2.85;0.98;;;15.60;83.90;;;;;;5095418;28;20032;-70
2023/09/24 08:19:41;;;;;;;2.42;1.20;;;15.60;84.20;;;;;;5094815;28;20028;-70
2023/09/24 08:22:07;;;;;;;3.15;1.25;;;15.60;84.40;;;;;;5095415;28;20028;-70
2023/09/24 08:24:33;;;;;;;3.47;1.67;;;15.60;84.30;;;;;;5094909;28;20032;-70
2023/09/24 08:26:58;;;;;;;2.42;1.10;;;15.60;84.20;;;;;;5092009;28;20034;-70
2023/09/24 08:29:24;;;;;;;3.65;1.60;;;15.60;84.40;;;;;;5094900;28;20028;-69
2023/09/24 08:31:50;;;;;;;2.25;1.30;;;15.60;84.90;;;;;;5094916;28;20107;-69
2023/09/24 08:34:16;;;;;;;2.42;1.20;;;15.60;84.60;;;;;;5095401;28;20059;-69
2023/09/24 08:36:41;;;;;;;2.70;1.05;;;15.60;84.60;;;;;;5094532;28;20456;-69
2023/09/24 08:39:08;;;;;;;3.22;1.20;;;15.60;84.90;;;;;;5094879;28;20028;-70
2023/09/24 08:41:41;;;;;;;3.05;1.10;;;15.60;85.20;;;;;;5093414;28;20433;-70
2023/09/24 08:44:11;;;;;;;2.42;1.15;;;15.50;85.30;;;;;;5094822;28;20035;-69
2023/09/24 08:46:37;;;;;;;2.38;1.20;;;15.50;85.70;;;;;;5094475;28;20114;-69
2023/09/24 08:49:04;;;;;;;1.52;1.10;;;15.50;86.20;;;;;;5093730;28;20384;-71
2023/09/24 08:51:32;;;;;;;1.55;1.30;;;15.50;86.40;;;;;;5094615;28;20024;-72
2023/09/24 08:54:00;;;;;;;3.08;1.52;;;15.50;86.40;;;;;;5094748;28;20031;-71
2023/09/24 08:56:26;;;;;;;2.00;1.30;;;15.50;86.50;;;;;;5094666;28;20050;-70
2023/09/24 08:58:53;;;;;;;5.63;1.25;;;15.40;86.00;;;;;;5094379;28;20032;-70
2023/09/24 09:01:19;;;;;;;5.00;1.40;;;15.50;86.00;;;;;;5094699;28;20125;-70
2023/09/24 09:03:45;;;;;;;1.77;1.20;;;15.40;86.50;;;;;;5094247;28;20080;-70
2023/09/24 09:06:28;;;;;;;3.42;1.10;;;15.40;86.90;;;;;;5093605;28;20415;-70
2023/09/24 09:08:54;;;;;;;2.83;1.30;;;15.40;87.10;;;;;;5094091;28;20016;-70
2023/09/24 09:11:20;;;;;;;3.50;1.73;;;15.40;86.70;;;;;;5093195;28;20372;-71
2023/09/24 09:13:49;;;;;;;1.92;1.20;;;15.50;86.30;;;;;;5094106;28;20100;-69
2023/09/24 09:16:16;;;;;;;2.20;1.30;;;15.50;86.80;;;;;;5093975;28;20075;-69
2023/09/24 09:18:42;;;;;;;2.55;1.20;;;15.50;86.60;;;;;;5092610;28;20020;-69
2023/09/24 09:21:08;;;;;;;2.20;1.13;;;15.50;86.50;;;;;;5094009;28;20052;-70
2023/09/24 09:23:37;;;;;;;2.95;1.48;;;15.50;86.50;;;;;;5093875;28;20063;-70
2023/09/24 09:26:03;;;;;;;5.53;1.35;;;15.50;86.90;;;;;;5090685;28;20028;-69
2023/09/24 09:28:31;;;;;;;2.63;1.20;;;15.50;86.60;;;;;;5094065;28;20028;-69
2023/09/24 09:31:08;;;;;;;1.52;1.10;;;15.50;86.70;;;;;;5093843;28;20056;-69
2023/09/24 09:33:42;;;;;;;2.17;1.15;;;15.50;85.90;;;;;;5092354;28;20080;-69
2023/09/24 09:36:28;;;;;;;5.78;1.58;;;15.50;86.00;;;;;;5092369;28;20035;-70
2023/09/24 09:38:56;;;;;;;1.20;1.02;;;15.60;85.80;;;;;;5093524;28;20028;-70
2023/09/24 09:41:29;;;;;;;2.20;1.27;;;15.60;86.10;;;;;;5093089;28;20076;-70
2023/09/24 09:44:03;;;;;;;2.15;1.10;;;15.70;86.20;;;;;;5093468;28;20074;-70
2023/09/24 09:46:33;;;;;;;3.08;1.20;;;15.60;85.90;;;;;;5093971;28;20020;-69
2023/09/24 09:49:05;;;;;;;3.08;1.20;;;15.70;86.00;;;;;;5094340;28;20023;-69
2023/09/24 09:51:45;;;;;;;3.28;1.55;;;15.70;86.10;;;;;;5092547;28;20030;-69
2023/09/24 09:54:12;;;;;;;3.33;1.50;;;15.70;86.10;;;;;;5094056;28;20024;-70
2023/09/24 09:56:38;;;;;;;2.70;1.17;;;15.80;86.40;;;;;;5092834;28;20138;-69
2023/09/24 09:59:04;;;;;;;2.28;1.15;;;15.70;85.70;;;;;;5093584;28;20461;-69
2023/09/24 10:01:31;;;;;;;3.95;1.50;;;15.70;85.40;;;;;;5093580;28;20028;-69
2023/09/24 10:03:59;;;;;;;4.00;1.23;;;15.80;85.40;;;;;;5092812;28;20465;-69
2023/09/24 10:06:25;;;;;;;4.05;1.40;;;15.80;85.20;;;;;;5093435;28;20035;-70
2023/09/24 10:08:52;;;;;;;2.78;1.30;;;15.80;85.20;;;;;;5092636;28;20028;-70
2023/09/24 10:11:30;;;;;;;4.18;1.40;;;15.90;85.10;;;;;;5093491;28;20070;-70
2023/09/24 10:13:57;;;;;;;2.33;1.40;;;15.90;85.30;;;;;;5092966;28;20043;-70
2023/09/24 10:16:26;;;;;;;3.22;1.20;;;15.90;85.90;;;;;;5091892;28;20546;-71
2023/09/24 10:19:00;;;;;;;2.40;1.33;;;16.00;84.30;;;;;;5092472;28;20107;-71
2023/09/24 10:21:32;;;;;;;6.10;1.40;;;15.90;84.80;;;;;;5091280;28;20024;-70
2023/09/24 10:24:10;;;;;;;3.85;1.20;;;15.90;84.40;;;;;;5092655;28;20020;-71
2023/09/24 10:26:51;;;;;;;3.00;1.10;;;16.00;84.60;;;;;;5091097;28;20028;-70
2023/09/24 10:29:18;;;;;;;;;;;16.00;84.90;;;;;;5072874;28;20391;-69
2023/09/24 10:32:08;;;;;;;4.65;1.73;;;16.10;85.10;;;;;;5072305;28;19911;-69
2023/09/24 10:35:06;;;;;;;2.33;1.42;;;16.10;84.30;;;;;;5072860;28;20035;-70
2023/09/24 10:37:39;;;;;;;2.45;1.40;;;16.10;84.80;;;;;;5038679;28;20135;-70
2023/09/24 10:40:09;;;;;;;4.45;1.65;;;16.10;84.30;;;;;;5072762;28;20077;-69
2023/09/24 10:42:39;;;;;;;2.45;1.30;;;16.10;83.70;;;;;;5073047;28;20035;-69
2023/09/24 10:45:08;;;;;;;2.63;1.40;;;16.20;83.60;;;;;;5072686;28;20036;-69
2023/09/24 10:47:41;;;;;;;4.50;1.90;;;16.20;83.90;;;;;;5072560;28;20024;-70
2023/09/24 10:50:12;;;;;;;4.47;1.50;;;16.20;83.90;;;;;;5072601;28;20057;-69
2023/09/24 10:52:52;;;;;;;3.20;1.60;;;16.30;83.40;;;;;;5072317;28;20024;-70
2023/09/24 10:55:37;;;;;;;2.83;1.30;;;16.30;83.40;;;;;;5072168;28;20052;-70
2023/09/24 10:58:06;;;;;;;2.83;1.50;;;16.20;83.90;;;;;;5072418;28;20481;-69
2023/09/24 11:00:34;;;;;;;5.22;1.30;;;16.30;83.10;;;;;;5072348;28;20561;-69
2023/09/24 11:03:00;;;;;;;3.55;1.30;;;16.30;83.30;;;;;;5072183;28;20020;-69
2023/09/24 11:05:27;;;;;;;2.20;1.30;;;16.30;83.10;;;;;;5072498;28;20146;-69
2023/09/24 11:07:54;;;;;;;2.70;1.40;;;16.30;83.20;;;;;;5072245;28;20052;-69
2023/09/24 11:10:25;;;;;;;6.63;1.48;;;16.40;83.40;;;;;;5072570;28;20036;-69
2023/09/24 11:12:53;;;;;;;2.08;1.48;;;16.40;83.70;;;;;;5072058;28;20029;-69
2023/09/24 11:15:20;;;;;;;4.93;1.60;;;16.40;83.60;;;;;;5072339;28;20036;-69
2023/09/24 11:17:47;;;;;;;4.35;1.70;;;16.40;83.60;;;;;;5071912;28;20049;-69
2023/09/24 11:20:17;;;;;;;3.10;1.50;;;16.50;83.20;;;;;;5072386;28;20024;-69
2023/09/24 11:22:43;;;;;;;2.95;1.25;;;16.50;84.00;;;;;;5072118;28;20025;-69
2023/09/24 11:25:10;;;;;;;3.65;1.52;;;16.50;83.90;;;;;;5072214;28;20059;-70
2023/09/24 11:27:48;;;;;;;3.83;1.33;;;16.60;83.50;;;;;;5074267;28;20024;-71
2023/09/24 11:30:15;;;;;;;5.68;1.35;;;16.60;82.90;;;;;;5072235;28;20031;-69
2023/09/24 11:32:42;;;;;;;3.60;1.55;;;16.50;84.10;;;;;;5071851;28;20033;-72
2023/09/24 11:35:10;;;;;;;3.80;1.27;;;16.60;84.00;;;;;;5072133;28;20031;-70
2023/09/24 11:37:49;;;;;;;4.43;1.40;;;16.60;83.60;;;;;;5071970;28;20527;-70
2023/09/24 11:40:32;;;;;;;4.82;1.40;;;16.70;84.00;;;;;;5072175;28;20032;-69
2023/09/24 11:43:03;;;;;;;3.10;1.30;;;16.70;83.00;;;;;;5071651;28;20046;-70
2023/09/24 11:45:49;;;;;;;6.72;1.55;;;16.70;83.00;;;;;;5082910;28;20028;-70
2023/09/24 11:48:20;;;;;;;2.88;1.30;;;16.80;83.30;;;;;;5091888;28;20028;-69
2023/09/24 11:50:48;;;;;;;4.03;1.65;;;16.90;83.50;;;;;;5091539;28;20107;-70
2023/09/24 11:53:15;;;;;;;5.45;1.23;;;16.90;82.90;;;;;;5091378;28;20081;-70
2023/09/24 11:55:41;;;;;;;3.70;1.70;;;17.00;82.80;;;;;;5091600;28;20040;-70
2023/09/24 11:58:08;;;;;;;3.47;1.27;;;17.10;83.70;;;;;;5091549;28;20388;-69
2023/09/24 12:00:39;;;;;;;4.00;1.50;;;17.20;82.80;;;;;;5091242;28;20040;-68
2023/09/24 12:03:06;;;;;;;3.50;1.45;;;17.20;81.90;;;;;;5090377;28;20024;-70
2023/09/24 12:05:33;;;;;;;2.42;1.42;;;17.30;81.40;;;;;;5094001;28;20380;-70
2023/09/24 12:07:59;;;;;;;3.03;1.30;;;17.30;81.20;;;;;;5094355;28;20020;-71
2023/09/24 12:10:26;;;;;;;3.00;1.48;;;17.40;81.30;;;;;;5094749;28;20032;-70
2023/09/24 12:12:51;;;;;;;2.67;1.40;;;17.40;80.30;;;;;;5094373;28;20069;-70
2023/09/24 12:15:18;;;;;;;3.63;1.33;;;17.40;79.90;;;;;;5094535;28;20379;-70
2023/09/24 12:17:46;;;;;;;2.05;1.02;;;17.50;80.20;;;;;;5093499;28;20031;-71
2023/09/24 12:20:13;;;;;;;3.20;1.60;;;17.50;80.30;;;;;;5094233;28;20024;-70
2023/09/24 12:22:42;;;;;;;1.83;1.10;;;17.50;79.70;;;;;;5094203;28;20020;-70
2023/09/24 12:25:11;;;;;;;3.03;1.42;;;17.50;79.30;;;;;;5083517;28;20321;-69
2023/09/24 12:27:39;;;;;;;2.70;1.30;;;17.40;79.40;;;;;;5073830;28;20029;-69
2023/09/24 12:30:07;;;;;;;2.75;1.55;;;17.50;79.90;;;;;;5073355;28;20056;-70
2023/09/24 12:32:34;;;;;;;2.45;1.40;;;17.50;78.80;;;;;;5073790;28;20028;-70
2023/09/24 12:35:02;;;;;;;4.88;1.45;;;17.60;79.00;;;;;;5073133;28;20088;-70
2023/09/24 12:37:28;;;;;;;3.40;1.17;;;17.60;78.80;;;;;;5073532;28;20040;-69
2023/09/24 12:39:55;;;;;;;3.45;1.20;;;17.60;78.20;;;;;;5073157;28;20024;-69
2023/09/24 12:42:21;;;;;;;2.92;1.50;;;17.60;78.10;;;;;;5073823;28;20054;-69
2023/09/24 12:44:48;;;;;;;6.53;1.55;;;17.70;78.50;;;;;;5073143;28;20528;-70
2023/09/24 12:47:14;;;;;;;2.85;1.20;;;17.70;77.70;;;;;;5071834;28;20083;-70
2023/09/24 12:49:40;;;;;;;2.90;1.33;;;17.70;77.10;;;;;;5073536;28;20099;-69
2023/09/24 12:52:05;;;;;;;2.03;1.13;;;17.70;77.90;;;;;;5073451;28;20032;-70